Villa de Puerto Real, Puerto Rico
Current Conditions -  °F | °C
As of 8:53 AM on Friday 24 Oct 2014 (Local Time) from TJNR Reporting Station
Few Clouds Few Clouds  
Wind Chill: 87°   Ceiling: Unl
Heat Index: 97°   Visibility: 10mi
Dew Point: 76°   Wind: 8mph
Humidity: 69%   Direction: 160°SSE
Pressure: 29.99"   Gusts: NA
Location:  18.3304°N, 65.6573°W
Report Text: TJNR 241253Z AUTO 16007KT 10SM FEW020 31/24 A2999 RMK AO2 SLP155 T03060244 $
Loading
Personal Weather Stations






























Interactive Weather Map
Tropical Storm Tracking
New forecast layout! Learn more

10-Day Weather Forecast

Advertisements
Track Severe Weather on mobile